sensor_id;sensor_type;location;lat;lon;timestamp;P1;durP1;ratioP1;P2;durP2;ratioP2
17842;SDS011;69286;48.222;16.332;2023-07-09T00:02:12;8.30;;;4.43;;
17842;SDS011;69286;48.222;16.332;2023-07-09T00:04:39;8.27;;;4.77;;
17842;SDS011;69286;48.222;16.332;2023-07-09T00:07:11;11.17;;;5.10;;
17842;SDS011;69286;48.222;16.332;2023-07-09T00:09:44;6.07;;;4.80;;
17842;SDS011;69286;48.222;16.332;2023-07-09T00:12:12;9.20;;;4.43;;
17842;SDS011;69286;48.222;16.332;2023-07-09T00:14:41;6.93;;;4.53;;
17842;SDS011;69286;48.222;16.332;2023-07-09T00:17:09;10.07;;;4.37;;
17842;SDS011;69286;48.222;16.332;2023-07-09T00:19:37;7.87;;;4.17;;
17842;SDS011;69286;48.222;16.332;2023-07-09T00:22:08;7.97;;;4.77;;
17842;SDS011;69286;48.222;16.332;2023-07-09T00:24:42;10.73;;;6.73;;
17842;SDS011;69286;48.222;16.332;2023-07-09T00:27:12;9.17;;;6.10;;
17842;SDS011;69286;48.222;16.332;2023-07-09T00:29:40;12.70;;;5.20;;
17842;SDS011;69286;48.222;16.332;2023-07-09T00:32:11;6.87;;;4.37;;
17842;SDS011;69286;48.222;16.332;2023-07-09T00:34:41;9.00;;;4.10;;
17842;SDS011;69286;48.222;16.332;2023-07-09T00:37:13;10.77;;;4.37;;
17842;SDS011;69286;48.222;16.332;2023-07-09T00:39:42;7.23;;;4.17;;
17842;SDS011;69286;48.222;16.332;2023-07-09T00:42:12;7.57;;;4.07;;
17842;SDS011;69286;48.222;16.332;2023-07-09T00:44:42;7.53;;;4.03;;
17842;SDS011;69286;48.222;16.332;2023-07-09T00:47:18;6.90;;;3.80;;
17842;SDS011;69286;48.222;16.332;2023-07-09T00:49:50;8.33;;;4.20;;
17842;SDS011;69286;48.222;16.332;2023-07-09T00:52:26;5.60;;;3.73;;
17842;SDS011;69286;48.222;16.332;2023-07-09T00:54:59;7.00;;;4.37;;
17842;SDS011;69286;48.222;16.332;2023-07-09T00:57:32;7.77;;;4.23;;
17842;SDS011;69286;48.222;16.332;2023-07-09T01:00:04;5.37;;;3.73;;
17842;SDS011;69286;48.222;16.332;2023-07-09T01:02:38;6.90;;;3.93;;
17842;SDS011;69286;48.222;16.332;2023-07-09T01:05:09;5.77;;;4.03;;
17842;SDS011;69286;48.222;16.332;2023-07-09T01:07:39;10.30;;;4.50;;
17842;SDS011;69286;48.222;16.332;2023-07-09T01:10:08;5.20;;;3.70;;
17842;SDS011;69286;48.222;16.332;2023-07-09T01:12:35;7.33;;;3.83;;
17842;SDS011;69286;48.222;16.332;2023-07-09T01:15:02;6.73;;;3.93;;
17842;SDS011;69286;48.222;16.332;2023-07-09T01:17:30;6.33;;;3.73;;
17842;SDS011;69286;48.222;16.332;2023-07-09T01:19:56;8.53;;;4.20;;
17842;SDS011;69286;48.222;16.332;2023-07-09T01:22:25;8.63;;;4.10;;
17842;SDS011;69286;48.222;16.332;2023-07-09T01:24:55;11.23;;;3.80;;
17842;SDS011;69286;48.222;16.332;2023-07-09T01:27:28;8.53;;;3.93;;
17842;SDS011;69286;48.222;16.332;2023-07-09T01:29:57;6.87;;;3.80;;
17842;SDS011;69286;48.222;16.332;2023-07-09T01:32:24;5.97;;;3.87;;
17842;SDS011;69286;48.222;16.332;2023-07-09T01:34:52;5.67;;;3.73;;
17842;SDS011;69286;48.222;16.332;2023-07-09T01:37:22;7.50;;;3.53;;
17842;SDS011;69286;48.222;16.332;2023-07-09T01:39:53;6.03;;;3.60;;
17842;SDS011;69286;48.222;16.332;2023-07-09T01:42:21;7.67;;;4.17;;
17842;SDS011;69286;48.222;16.332;2023-07-09T01:44:50;5.47;;;3.77;;
17842;SDS011;69286;48.222;16.332;2023-07-09T01:47:19;7.43;;;3.73;;
17842;SDS011;69286;48.222;16.332;2023-07-09T01:49:47;5.50;;;3.67;;
17842;SDS011;69286;48.222;16.332;2023-07-09T01:52:14;4.83;;;3.77;;
17842;SDS011;69286;48.222;16.332;2023-07-09T01:54:45;7.23;;;4.07;;
17842;SDS011;69286;48.222;16.332;2023-07-09T01:57:15;7.20;;;3.77;;
17842;SDS011;69286;48.222;16.332;2023-07-09T01:59:48;4.70;;;4.00;;
17842;SDS011;69286;48.222;16.332;2023-07-09T02:02:16;4.60;;;3.50;;
17842;SDS011;69286;48.222;16.332;2023-07-09T02:04:48;6.07;;;4.10;;
17842;SDS011;69286;48.222;16.332;2023-07-09T02:07:17;7.37;;;4.67;;
17842;SDS011;69286;48.222;16.332;2023-07-09T02:09:45;7.27;;;4.10;;
17842;SDS011;69286;48.222;16.332;2023-07-09T02:12:13;6.77;;;4.20;;
17842;SDS011;69286;48.222;16.332;2023-07-09T02:14:42;7.60;;;4.47;;
17842;SDS011;69286;48.222;16.332;2023-07-09T02:17:10;6.87;;;4.03;;
17842;SDS011;69286;48.222;16.332;2023-07-09T02:19:38;22.07;;;3.97;;
17842;SDS011;69286;48.222;16.332;2023-07-09T02:22:06;5.33;;;3.80;;
17842;SDS011;69286;48.222;16.332;2023-07-09T02:24:34;5.77;;;4.00;;
17842;SDS011;69286;48.222;16.332;2023-07-09T02:27:03;5.87;;;4.03;;
17842;SDS011;69286;48.222;16.332;2023-07-09T02:29:32;4.80;;;3.87;;
17842;SDS011;69286;48.222;16.332;2023-07-09T02:32:00;7.53;;;4.23;;
17842;SDS011;69286;48.222;16.332;2023-07-09T02:34:28;9.13;;;5.10;;
17842;SDS011;69286;48.222;16.332;2023-07-09T02:36:56;5.57;;;4.07;;
17842;SDS011;69286;48.222;16.332;2023-07-09T02:39:25;5.13;;;4.30;;
17842;SDS011;69286;48.222;16.332;2023-07-09T02:41:52;5.43;;;4.10;;
17842;SDS011;69286;48.222;16.332;2023-07-09T02:44:20;8.27;;;3.73;;
17842;SDS011;69286;48.222;16.332;2023-07-09T02:46:47;7.53;;;3.80;;
17842;SDS011;69286;48.222;16.332;2023-07-09T02:49:14;4.97;;;3.90;;
17842;SDS011;69286;48.222;16.332;2023-07-09T02:51:42;5.67;;;4.27;;
17842;SDS011;69286;48.222;16.332;2023-07-09T02:54:08;5.23;;;3.60;;
17842;SDS011;69286;48.222;16.332;2023-07-09T02:56:35;6.33;;;4.00;;
17842;SDS011;69286;48.222;16.332;2023-07-09T02:59:03;9.20;;;4.63;;
17842;SDS011;69286;48.222;16.332;2023-07-09T03:01:32;7.70;;;4.30;;
17842;SDS011;69286;48.222;16.332;2023-07-09T03:03:59;5.90;;;3.53;;
17842;SDS011;69286;48.222;16.332;2023-07-09T03:06:28;10.67;;;4.87;;
17842;SDS011;69286;48.222;16.332;2023-07-09T03:08:58;6.73;;;4.47;;
17842;SDS011;69286;48.222;16.332;2023-07-09T03:11:27;5.97;;;4.33;;
17842;SDS011;69286;48.222;16.332;2023-07-09T03:13:55;6.20;;;4.10;;
17842;SDS011;69286;48.222;16.332;2023-07-09T03:16:22;5.57;;;3.93;;
17842;SDS011;69286;48.222;16.332;2023-07-09T03:18:50;6.13;;;4.10;;
17842;SDS011;69286;48.222;16.332;2023-07-09T03:21:17;7.57;;;4.57;;
17842;SDS011;69286;48.222;16.332;2023-07-09T03:23:44;6.60;;;4.10;;
17842;SDS011;69286;48.222;16.332;2023-07-09T03:26:12;8.60;;;4.40;;
17842;SDS011;69286;48.222;16.332;2023-07-09T03:28:40;7.13;;;4.03;;
17842;SDS011;69286;48.222;16.332;2023-07-09T03:31:07;7.43;;;4.57;;
17842;SDS011;69286;48.222;16.332;2023-07-09T03:33:34;9.83;;;4.07;;
17842;SDS011;69286;48.222;16.332;2023-07-09T03:36:03;7.30;;;4.43;;
17842;SDS011;69286;48.222;16.332;2023-07-09T03:38:30;7.17;;;4.70;;
17842;SDS011;69286;48.222;16.332;2023-07-09T03:40:57;5.73;;;3.90;;
17842;SDS011;69286;48.222;16.332;2023-07-09T03:43:24;7.53;;;4.40;;
17842;SDS011;69286;48.222;16.332;2023-07-09T03:45:52;8.83;;;4.50;;
17842;SDS011;69286;48.222;16.332;2023-07-09T03:48:19;7.97;;;4.63;;
17842;SDS011;69286;48.222;16.332;2023-07-09T03:50:46;4.37;;;3.70;;
17842;SDS011;69286;48.222;16.332;2023-07-09T03:53:15;7.77;;;4.40;;
17842;SDS011;69286;48.222;16.332;2023-07-09T03:55:44;6.60;;;3.87;;
17842;SDS011;69286;48.222;16.332;2023-07-09T03:58:12;11.60;;;4.40;;
17842;SDS011;69286;48.222;16.332;2023-07-09T04:00:40;5.63;;;3.97;;
17842;SDS011;69286;48.222;16.332;2023-07-09T04:03:07;7.07;;;4.07;;
17842;SDS011;69286;48.222;16.332;2023-07-09T04:05:35;7.47;;;3.90;;
17842;SDS011;69286;48.222;16.332;2023-07-09T04:08:02;7.40;;;4.03;;
17842;SDS011;69286;48.222;16.332;2023-07-09T04:10:31;10.60;;;4.37;;
17842;SDS011;69286;48.222;16.332;2023-07-09T04:12:58;6.40;;;4.53;;
17842;SDS011;69286;48.222;16.332;2023-07-09T04:15:25;5.97;;;4.27;;
17842;SDS011;69286;48.222;16.332;2023-07-09T04:17:52;6.73;;;3.90;;
17842;SDS011;69286;48.222;16.332;2023-07-09T04:20:19;7.83;;;4.17;;
17842;SDS011;69286;48.222;16.332;2023-07-09T04:22:46;6.10;;;4.17;;
17842;SDS011;69286;48.222;16.332;2023-07-09T04:25:14;8.00;;;4.90;;
17842;SDS011;69286;48.222;16.332;2023-07-09T04:27:42;13.40;;;6.70;;
17842;SDS011;69286;48.222;16.332;2023-07-09T04:30:10;10.87;;;6.80;;
17842;SDS011;69286;48.222;16.332;2023-07-09T04:32:39;8.53;;;5.20;;
17842;SDS011;69286;48.222;16.332;2023-07-09T04:35:08;7.70;;;4.90;;
17842;SDS011;69286;48.222;16.332;2023-07-09T04:37:36;10.30;;;6.13;;
17842;SDS011;69286;48.222;16.332;2023-07-09T04:40:04;9.50;;;5.50;;
17842;SDS011;69286;48.222;16.332;2023-07-09T04:42:35;8.60;;;4.83;;
17842;SDS011;69286;48.222;16.332;2023-07-09T04:45:05;9.73;;;5.77;;
17842;SDS011;69286;48.222;16.332;2023-07-09T04:47:34;7.57;;;5.20;;
17842;SDS011;69286;48.222;16.332;2023-07-09T04:50:02;13.13;;;6.43;;
17842;SDS011;69286;48.222;16.332;2023-07-09T04:52:29;10.93;;;7.03;;
17842;SDS011;69286;48.222;16.332;2023-07-09T04:54:56;8.00;;;5.90;;
17842;SDS011;69286;48.222;16.332;2023-07-09T04:57:24;16.33;;;6.40;;
17842;SDS011;69286;48.222;16.332;2023-07-09T04:59:51;12.10;;;4.87;;
17842;SDS011;69286;48.222;16.332;2023-07-09T05:02:19;8.10;;;4.33;;
17842;SDS011;69286;48.222;16.332;2023-07-09T05:04:46;8.88;;;5.05;;
17842;SDS011;69286;48.222;16.332;2023-07-09T05:07:13;6.00;;;4.18;;
17842;SDS011;69286;48.222;16.332;2023-07-09T05:09:40;9.35;;;4.72;;
17842;SDS011;69286;48.222;16.332;2023-07-09T05:12:07;5.95;;;4.38;;
17842;SDS011;69286;48.222;16.332;2023-07-09T05:14:35;10.18;;;4.15;;
17842;SDS011;69286;48.222;16.332;2023-07-09T05:17:02;9.68;;;4.35;;
17842;SDS011;69286;48.222;16.332;2023-07-09T05:19:31;11.57;;;4.40;;
17842;SDS011;69286;48.222;16.332;2023-07-09T05:21:58;5.93;;;4.85;;
17842;SDS011;69286;48.222;16.332;2023-07-09T05:24:25;5.95;;;4.40;;
17842;SDS011;69286;48.222;16.332;2023-07-09T05:26:53;8.68;;;4.50;;
17842;SDS011;69286;48.222;16.332;2023-07-09T05:29:21;11.02;;;4.63;;
17842;SDS011;69286;48.222;16.332;2023-07-09T05:31:48;8.55;;;4.40;;
17842;SDS011;69286;48.222;16.332;2023-07-09T05:34:15;7.53;;;4.05;;
17842;SDS011;69286;48.222;16.332;2023-07-09T05:36:43;10.18;;;4.90;;
17842;SDS011;69286;48.222;16.332;2023-07-09T05:39:11;6.95;;;4.13;;
17842;SDS011;69286;48.222;16.332;2023-07-09T05:41:38;8.07;;;4.47;;
17842;SDS011;69286;48.222;16.332;2023-07-09T05:44:05;8.38;;;4.90;;
17842;SDS011;69286;48.222;16.332;2023-07-09T05:46:33;8.50;;;4.55;;
17842;SDS011;69286;48.222;16.332;2023-07-09T05:49:02;11.10;;;4.47;;
17842;SDS011;69286;48.222;16.332;2023-07-09T05:51:29;6.28;;;3.92;;
17842;SDS011;69286;48.222;16.332;2023-07-09T05:53:58;6.95;;;4.82;;
17842;SDS011;69286;48.222;16.332;2023-07-09T05:56:25;5.68;;;4.53;;
17842;SDS011;69286;48.222;16.332;2023-07-09T05:58:52;6.15;;;4.72;;
17842;SDS011;69286;48.222;16.332;2023-07-09T06:01:19;6.25;;;4.78;;
17842;SDS011;69286;48.222;16.332;2023-07-09T06:03:46;7.75;;;4.65;;
17842;SDS011;69286;48.222;16.332;2023-07-09T06:06:14;9.95;;;4.85;;
17842;SDS011;69286;48.222;16.332;2023-07-09T06:08:41;8.45;;;5.03;;
17842;SDS011;69286;48.222;16.332;2023-07-09T06:11:09;10.32;;;5.13;;
17842;SDS011;69286;48.222;16.332;2023-07-09T06:13:36;5.68;;;4.55;;
17842;SDS011;69286;48.222;16.332;2023-07-09T06:16:04;10.05;;;5.03;;
17842;SDS011;69286;48.222;16.332;2023-07-09T06:18:31;6.20;;;4.63;;
17842;SDS011;69286;48.222;16.332;2023-07-09T06:21:00;7.53;;;5.30;;
17842;SDS011;69286;48.222;16.332;2023-07-09T06:23:28;9.45;;;5.35;;
17842;SDS011;69286;48.222;16.332;2023-07-09T06:25:55;8.45;;;4.90;;
17842;SDS011;69286;48.222;16.332;2023-07-09T06:28:26;8.75;;;4.90;;
17842;SDS011;69286;48.222;16.332;2023-07-09T06:30:55;7.85;;;4.88;;
17842;SDS011;69286;48.222;16.332;2023-07-09T06:33:22;8.93;;;4.88;;
17842;SDS011;69286;48.222;16.332;2023-07-09T06:35:50;9.23;;;5.15;;
17842;SDS011;69286;48.222;16.332;2023-07-09T06:38:19;14.40;;;4.25;;
17842;SDS011;69286;48.222;16.332;2023-07-09T06:40:46;8.38;;;4.30;;
17842;SDS011;69286;48.222;16.332;2023-07-09T06:43:13;11.43;;;5.40;;
17842;SDS011;69286;48.222;16.332;2023-07-09T06:45:49;6.60;;;4.60;;
17842;SDS011;69286;48.222;16.332;2023-07-09T06:48:17;12.95;;;5.15;;
17842;SDS011;69286;48.222;16.332;2023-07-09T06:50:46;11.68;;;5.28;;
17842;SDS011;69286;48.222;16.332;2023-07-09T06:53:13;10.98;;;4.75;;
17842;SDS011;69286;48.222;16.332;2023-07-09T06:55:40;9.52;;;4.47;;
17842;SDS011;69286;48.222;16.332;2023-07-09T06:58:08;7.90;;;5.03;;
17842;SDS011;69286;48.222;16.332;2023-07-09T07:00:35;7.10;;;4.50;;
17842;SDS011;69286;48.222;16.332;2023-07-09T07:03:04;13.65;;;4.95;;
17842;SDS011;69286;48.222;16.332;2023-07-09T07:05:32;7.00;;;4.55;;
17842;SDS011;69286;48.222;16.332;2023-07-09T07:07:59;7.07;;;4.13;;
17842;SDS011;69286;48.222;16.332;2023-07-09T07:10:27;6.32;;;4.25;;
17842;SDS011;69286;48.222;16.332;2023-07-09T07:12:55;6.72;;;4.40;;
17842;SDS011;69286;48.222;16.332;2023-07-09T07:15:22;5.53;;;3.85;;
17842;SDS011;69286;48.222;16.332;2023-07-09T07:17:49;9.57;;;3.92;;
17842;SDS011;69286;48.222;16.332;2023-07-09T07:20:17;5.30;;;3.97;;
17842;SDS011;69286;48.222;16.332;2023-07-09T07:22:45;10.10;;;4.45;;
17842;SDS011;69286;48.222;16.332;2023-07-09T07:25:12;11.60;;;4.40;;
17842;SDS011;69286;48.222;16.332;2023-07-09T07:27:39;5.97;;;4.50;;
17842;SDS011;69286;48.222;16.332;2023-07-09T07:30:06;5.93;;;3.85;;
17842;SDS011;69286;48.222;16.332;2023-07-09T07:32:35;5.10;;;4.18;;
17842;SDS011;69286;48.222;16.332;2023-07-09T07:35:03;6.63;;;4.22;;
17842;SDS011;69286;48.222;16.332;2023-07-09T07:37:32;6.57;;;3.95;;
17842;SDS011;69286;48.222;16.332;2023-07-09T07:39:59;8.98;;;4.50;;
17842;SDS011;69286;48.222;16.332;2023-07-09T07:42:27;8.18;;;4.07;;
17842;SDS011;69286;48.222;16.332;2023-07-09T07:44:54;7.32;;;4.05;;
17842;SDS011;69286;48.222;16.332;2023-07-09T07:47:21;4.35;;;3.60;;
17842;SDS011;69286;48.222;16.332;2023-07-09T07:49:48;5.15;;;3.70;;
17842;SDS011;69286;48.222;16.332;2023-07-09T07:52:15;5.05;;;3.50;;
17842;SDS011;69286;48.222;16.332;2023-07-09T07:54:43;5.97;;;3.92;;
17842;SDS011;69286;48.222;16.332;2023-07-09T07:57:10;8.98;;;4.35;;
17842;SDS011;69286;48.222;16.332;2023-07-09T07:59:37;7.55;;;4.30;;
17842;SDS011;69286;48.222;16.332;2023-07-09T08:02:05;4.75;;;4.00;;
17842;SDS011;69286;48.222;16.332;2023-07-09T08:04:36;6.78;;;4.20;;
17842;SDS011;69286;48.222;16.332;2023-07-09T08:07:03;6.07;;;4.53;;
17842;SDS011;69286;48.222;16.332;2023-07-09T08:09:32;7.45;;;4.03;;
17842;SDS011;69286;48.222;16.332;2023-07-09T08:12:00;4.70;;;3.80;;
17842;SDS011;69286;48.222;16.332;2023-07-09T08:14:33;4.13;;;3.80;;
17842;SDS011;69286;48.222;16.332;2023-07-09T08:17:00;10.32;;;4.45;;
17842;SDS011;69286;48.222;16.332;2023-07-09T08:19:28;8.70;;;4.22;;
17842;SDS011;69286;48.222;16.332;2023-07-09T08:24:46;8.55;;;4.30;;
17842;SDS011;69286;48.222;16.332;2023-07-09T08:27:15;5.25;;;4.15;;
17842;SDS011;69286;48.222;16.332;2023-07-09T08:29:43;4.30;;;3.90;;
17842;SDS011;69286;48.222;16.332;2023-07-09T08:32:10;7.30;;;4.40;;
17842;SDS011;69286;48.222;16.332;2023-07-09T08:34:38;6.85;;;4.40;;
17842;SDS011;69286;48.222;16.332;2023-07-09T08:37:07;5.50;;;4.20;;
17842;SDS011;69286;48.222;16.332;2023-07-09T08:39:34;6.28;;;3.95;;
17842;SDS011;69286;48.222;16.332;2023-07-09T08:42:03;5.43;;;4.32;;
17842;SDS011;69286;48.222;16.332;2023-07-09T08:44:43;6.28;;;4.97;;
17842;SDS011;69286;48.222;16.332;2023-07-09T08:47:27;4.72;;;3.92;;
17842;SDS011;69286;48.222;16.332;2023-07-09T08:50:01;4.80;;;4.20;;
17842;SDS011;69286;48.222;16.332;2023-07-09T08:52:33;4.40;;;4.00;;
17842;SDS011;69286;48.222;16.332;2023-07-09T08:55:04;8.35;;;3.97;;
17842;SDS011;69286;48.222;16.332;2023-07-09T08:57:37;4.78;;;4.00;;
17842;SDS011;69286;48.222;16.332;2023-07-09T09:00:07;8.35;;;4.07;;
17842;SDS011;69286;48.222;16.332;2023-07-09T09:02:44;4.25;;;3.80;;
17842;SDS011;69286;48.222;16.332;2023-07-09T09:05:17;3.88;;;3.45;;
17842;SDS011;69286;48.222;16.332;2023-07-09T09:07:48;5.88;;;4.05;;
17842;SDS011;69286;48.222;16.332;2023-07-09T09:10:21;5.20;;;3.80;;
17842;SDS011;69286;48.222;16.332;2023-07-09T09:12:59;7.22;;;4.40;;
17842;SDS011;69286;48.222;16.332;2023-07-09T09:15:33;5.78;;;3.38;;
17842;SDS011;69286;48.222;16.332;2023-07-09T09:18:10;6.25;;;3.90;;
17842;SDS011;69286;48.222;16.332;2023-07-09T09:20:47;4.50;;;3.67;;
17842;SDS011;69286;48.222;16.332;2023-07-09T09:23:19;6.20;;;3.70;;
17842;SDS011;69286;48.222;16.332;2023-07-09T09:25:48;5.30;;;4.10;;
17842;SDS011;69286;48.222;16.332;2023-07-09T09:28:18;5.88;;;3.55;;
17842;SDS011;69286;48.222;16.332;2023-07-09T09:30:49;9.52;;;4.25;;
17842;SDS011;69286;48.222;16.332;2023-07-09T09:33:16;4.00;;;3.40;;
17842;SDS011;69286;48.222;16.332;2023-07-09T09:35:44;5.00;;;4.05;;
17842;SDS011;69286;48.222;16.332;2023-07-09T09:38:15;9.15;;;4.05;;
17842;SDS011;69286;48.222;16.332;2023-07-09T09:40:43;5.80;;;3.45;;
17842;SDS011;69286;48.222;16.332;2023-07-09T09:43:11;5.97;;;3.78;;
17842;SDS011;69286;48.222;16.332;2023-07-09T09:45:40;8.88;;;3.95;;
17842;SDS011;69286;48.222;16.332;2023-07-09T09:48:18;6.72;;;4.03;;
17842;SDS011;69286;48.222;16.332;2023-07-09T09:50:47;5.32;;;3.80;;
17842;SDS011;69286;48.222;16.332;2023-07-09T09:53:18;8.27;;;6.10;;
17842;SDS011;69286;48.222;16.332;2023-07-09T09:55:47;10.07;;;5.22;;
17842;SDS011;69286;48.222;16.332;2023-07-09T09:58:15;6.50;;;4.57;;
17842;SDS011;69286;48.222;16.332;2023-07-09T10:00:46;8.70;;;5.47;;
17842;SDS011;69286;48.222;16.332;2023-07-09T10:03:16;5.40;;;4.63;;
17842;SDS011;69286;48.222;16.332;2023-07-09T10:05:52;6.70;;;4.20;;
17842;SDS011;69286;48.222;16.332;2023-07-09T10:08:26;7.15;;;4.38;;
17842;SDS011;69286;48.222;16.332;2023-07-09T10:11:02;5.97;;;4.90;;
17842;SDS011;69286;48.222;16.332;2023-07-09T10:13:37;4.28;;;3.90;;
17842;SDS011;69286;48.222;16.332;2023-07-09T10:16:10;12.57;;;6.78;;
17842;SDS011;69286;48.222;16.332;2023-07-09T10:18:47;8.25;;;5.45;;
17842;SDS011;69286;48.222;16.332;2023-07-09T10:21:23;6.32;;;5.00;;
17842;SDS011;69286;48.222;16.332;2023-07-09T10:23:59;7.22;;;4.50;;
17842;SDS011;69286;48.222;16.332;2023-07-09T10:26:39;6.55;;;4.43;;
17842;SDS011;69286;48.222;16.332;2023-07-09T10:29:26;5.18;;;4.68;;
17842;SDS011;69286;48.222;16.332;2023-07-09T10:32:08;6.53;;;4.85;;
17842;SDS011;69286;48.222;16.332;2023-07-09T10:34:45;5.13;;;4.18;;
17842;SDS011;69286;48.222;16.332;2023-07-09T10:37:23;5.90;;;4.78;;
17842;SDS011;69286;48.222;16.332;2023-07-09T10:40:07;5.10;;;4.60;;
17842;SDS011;69286;48.222;16.332;2023-07-09T10:42:39;6.13;;;4.88;;
17842;SDS011;69286;48.222;16.332;2023-07-09T10:45:11;6.20;;;5.07;;
17842;SDS011;69286;48.222;16.332;2023-07-09T10:47:40;8.68;;;5.00;;
17842;SDS011;69286;48.222;16.332;2023-07-09T10:50:12;6.28;;;5.18;;
17842;SDS011;69286;48.222;16.332;2023-07-09T10:52:44;6.20;;;4.50;;
17842;SDS011;69286;48.222;16.332;2023-07-09T10:55:15;7.72;;;5.07;;
17842;SDS011;69286;48.222;16.332;2023-07-09T10:57:48;5.10;;;4.60;;
17842;SDS011;69286;48.222;16.332;2023-07-09T11:00:23;6.43;;;4.85;;
17842;SDS011;69286;48.222;16.332;2023-07-09T11:02:58;6.18;;;4.43;;
17842;SDS011;69286;48.222;16.332;2023-07-09T11:05:31;5.55;;;4.43;;
17842;SDS011;69286;48.222;16.332;2023-07-09T11:08:00;4.93;;;4.43;;
17842;SDS011;69286;48.222;16.332;2023-07-09T11:10:31;5.60;;;4.93;;
17842;SDS011;69286;48.222;16.332;2023-07-09T11:13:02;5.55;;;4.63;;
17842;SDS011;69286;48.222;16.332;2023-07-09T11:15:32;4.72;;;4.28;;
17842;SDS011;69286;48.222;16.332;2023-07-09T11:18:04;5.22;;;4.72;;
17842;SDS011;69286;48.222;16.332;2023-07-09T11:20:34;5.40;;;4.18;;
17842;SDS011;69286;48.222;16.332;2023-07-09T11:23:04;4.35;;;3.72;;
17842;SDS011;69286;48.222;16.332;2023-07-09T11:25:40;8.77;;;4.25;;
17842;SDS011;69286;48.222;16.332;2023-07-09T11:28:09;3.60;;;3.13;;
17842;SDS011;69286;48.222;16.332;2023-07-09T11:30:45;6.53;;;4.25;;
17842;SDS011;69286;48.222;16.332;2023-07-09T11:33:17;4.47;;;3.40;;
17842;SDS011;69286;48.222;16.332;2023-07-09T11:35:47;4.88;;;4.07;;
17842;SDS011;69286;48.222;16.332;2023-07-09T11:38:17;5.05;;;3.85;;
17842;SDS011;69286;48.222;16.332;2023-07-09T11:40:46;6.55;;;4.00;;
17842;SDS011;69286;48.222;16.332;2023-07-09T11:43:25;5.18;;;3.20;;
17842;SDS011;69286;48.222;16.332;2023-07-09T11:45:54;5.55;;;3.85;;
17842;SDS011;69286;48.222;16.332;2023-07-09T11:48:27;9.35;;;4.22;;
17842;SDS011;69286;48.222;16.332;2023-07-09T11:50:59;6.28;;;4.10;;
17842;SDS011;69286;48.222;16.332;2023-07-09T11:53:34;5.13;;;3.85;;
17842;SDS011;69286;48.222;16.332;2023-07-09T11:56:08;6.78;;;3.60;;
17842;SDS011;69286;48.222;16.332;2023-07-09T11:58:35;3.40;;;3.10;;
17842;SDS011;69286;48.222;16.332;2023-07-09T12:01:02;5.72;;;3.40;;
17842;SDS011;69286;48.222;16.332;2023-07-09T12:03:40;4.00;;;3.30;;
17842;SDS011;69286;48.222;16.332;2023-07-09T12:06:16;4.05;;;3.33;;
17842;SDS011;69286;48.222;16.332;2023-07-09T12:08:54;4.82;;;3.50;;
17842;SDS011;69286;48.222;16.332;2023-07-09T12:11:22;4.60;;;3.78;;
17842;SDS011;69286;48.222;16.332;2023-07-09T12:13:50;4.32;;;3.70;;
17842;SDS011;69286;48.222;16.332;2023-07-09T12:16:22;7.40;;;3.22;;
17842;SDS011;69286;48.222;16.332;2023-07-09T12:18:50;3.50;;;3.20;;
17842;SDS011;69286;48.222;16.332;2023-07-09T12:21:17;5.03;;;3.50;;
17842;SDS011;69286;48.222;16.332;2023-07-09T12:23:45;3.58;;;3.28;;
17842;SDS011;69286;48.222;16.332;2023-07-09T12:26:14;4.60;;;3.30;;
17842;SDS011;69286;48.222;16.332;2023-07-09T12:28:48;5.32;;;3.65;;
17842;SDS011;69286;48.222;16.332;2023-07-09T12:31:16;5.18;;;3.72;;
17842;SDS011;69286;48.222;16.332;2023-07-09T12:33:47;3.67;;;3.30;;
17842;SDS011;69286;48.222;16.332;2023-07-09T12:36:15;3.88;;;3.50;;
17842;SDS011;69286;48.222;16.332;2023-07-09T12:38:44;9.30;;;3.20;;
17842;SDS011;69286;48.222;16.332;2023-07-09T12:41:17;4.28;;;3.50;;
17842;SDS011;69286;48.222;16.332;2023-07-09T12:43:46;4.15;;;3.70;;
17842;SDS011;69286;48.222;16.332;2023-07-09T12:46:14;4.97;;;4.28;;
17842;SDS011;69286;48.222;16.332;2023-07-09T12:48:42;5.57;;;4.97;;
17842;SDS011;69286;48.222;16.332;2023-07-09T12:51:13;9.93;;;8.00;;
17842;SDS011;69286;48.222;16.332;2023-07-09T12:53:44;6.18;;;4.43;;
17842;SDS011;69286;48.222;16.332;2023-07-09T12:56:12;4.28;;;3.13;;
17842;SDS011;69286;48.222;16.332;2023-07-09T12:58:43;3.70;;;3.28;;
17842;SDS011;69286;48.222;16.332;2023-07-09T13:01:13;6.32;;;3.67;;
17842;SDS011;69286;48.222;16.332;2023-07-09T13:03:42;3.83;;;3.17;;
17842;SDS011;69286;48.222;16.332;2023-07-09T13:06:26;3.40;;;3.10;;
17842;SDS011;69286;48.222;16.332;2023-07-09T13:08:56;3.63;;;3.33;;
17842;SDS011;69286;48.222;16.332;2023-07-09T13:11:24;5.88;;;3.17;;
17842;SDS011;69286;48.222;16.332;2023-07-09T13:13:56;5.30;;;3.28;;
17842;SDS011;69286;48.222;16.332;2023-07-09T13:16:24;3.88;;;3.13;;
17842;SDS011;69286;48.222;16.332;2023-07-09T13:18:52;5.75;;;3.53;;
17842;SDS011;69286;48.222;16.332;2023-07-09T13:21:19;3.63;;;3.20;;
17842;SDS011;69286;48.222;16.332;2023-07-09T13:23:47;5.68;;;3.13;;
17842;SDS011;69286;48.222;16.332;2023-07-09T13:26:15;8.27;;;3.28;;
17842;SDS011;69286;48.222;16.332;2023-07-09T13:28:42;6.63;;;3.25;;
17842;SDS011;69286;48.222;16.332;2023-07-09T13:31:13;3.80;;;3.30;;
17842;SDS011;69286;48.222;16.332;2023-07-09T13:33:41;4.03;;;2.97;;
17842;SDS011;69286;48.222;16.332;2023-07-09T13:36:09;4.28;;;2.95;;
17842;SDS011;69286;48.222;16.332;2023-07-09T13:38:36;4.32;;;3.22;;
17842;SDS011;69286;48.222;16.332;2023-07-09T13:41:10;3.60;;;3.10;;
17842;SDS011;69286;48.222;16.332;2023-07-09T13:43:40;4.13;;;3.33;;
17842;SDS011;69286;48.222;16.332;2023-07-09T13:46:09;4.68;;;3.00;;
17842;SDS011;69286;48.222;16.332;2023-07-09T13:48:38;3.35;;;3.05;;
17842;SDS011;69286;48.222;16.332;2023-07-09T13:51:10;5.20;;;2.83;;
17842;SDS011;69286;48.222;16.332;2023-07-09T13:53:41;4.00;;;3.17;;
17842;SDS011;69286;48.222;16.332;2023-07-09T13:56:08;3.40;;;3.10;;
17842;SDS011;69286;48.222;16.332;2023-07-09T13:58:35;8.40;;;3.80;;
17842;SDS011;69286;48.222;16.332;2023-07-09T14:01:08;4.05;;;2.72;;
17842;SDS011;69286;48.222;16.332;2023-07-09T14:03:39;3.88;;;3.17;;
17842;SDS011;69286;48.222;16.332;2023-07-09T14:06:08;3.40;;;3.10;;
17842;SDS011;69286;48.222;16.332;2023-07-09T14:08:37;5.25;;;3.17;;
17842;SDS011;69286;48.222;16.332;2023-07-09T14:11:08;3.72;;;3.40;;
17842;SDS011;69286;48.222;16.332;2023-07-09T14:13:37;5.78;;;3.40;;
17842;SDS011;69286;48.222;16.332;2023-07-09T14:16:05;4.85;;;3.45;;
17842;SDS011;69286;48.222;16.332;2023-07-09T14:18:33;4.57;;;3.20;;
17842;SDS011;69286;48.222;16.332;2023-07-09T14:21:02;5.53;;;3.10;;
17842;SDS011;69286;48.222;16.332;2023-07-09T14:23:36;8.27;;;3.90;;
17842;SDS011;69286;48.222;16.332;2023-07-09T14:26:03;4.47;;;3.55;;
17842;SDS011;69286;48.222;16.332;2023-07-09T14:28:29;5.95;;;3.78;;
17842;SDS011;69286;48.222;16.332;2023-07-09T14:30:57;4.53;;;3.45;;
17842;SDS011;69286;48.222;16.332;2023-07-09T14:33:24;4.65;;;3.70;;
17842;SDS011;69286;48.222;16.332;2023-07-09T14:35:51;7.45;;;3.75;;
17842;SDS011;69286;48.222;16.332;2023-07-09T14:38:20;6.38;;;3.45;;
17842;SDS011;69286;48.222;16.332;2023-07-09T14:40:49;5.72;;;3.50;;
17842;SDS011;69286;48.222;16.332;2023-07-09T14:43:19;4.80;;;3.60;;
17842;SDS011;69286;48.222;16.332;2023-07-09T14:45:47;4.28;;;3.63;;
17842;SDS011;69286;48.222;16.332;2023-07-09T14:48:15;5.10;;;3.45;;
17842;SDS011;69286;48.222;16.332;2023-07-09T14:50:44;4.15;;;3.53;;